sensor_id;sensor_type;location;lat;lon;timestamp;pressure;altitude;pressure_sealevel;temperature;humidity
6024;BME280;3040;42.654;23.296;2023-02-15T11:52:42;95423.03;;;13.22;39.45
6024;BME280;3040;42.654;23.296;2023-02-15T11:55:12;95412.72;;;12.45;43.64
6024;BME280;3040;42.654;23.296;2023-02-15T11:57:43;95421.16;;;13.23;43.14
6024;BME280;3040;42.654;23.296;2023-02-15T12:00:16;95422.63;;;13.32;41.26
6024;BME280;3040;42.654;23.296;2023-02-15T12:02:52;95306.00;;;11.34;42.56
6024;BME280;3040;42.654;23.296;2023-02-15T12:05:21;95420.19;;;11.19;46.06
6024;BME280;3040;42.654;23.296;2023-02-15T12:07:54;95400.41;;;12.23;43.81
6024;BME280;3040;42.654;23.296;2023-02-15T12:10:24;95401.03;;;13.25;41.63
6024;BME280;3040;42.654;23.296;2023-02-15T12:13:09;95402.00;;;13.41;40.69
6024;BME280;3040;42.654;23.296;2023-02-15T12:15:38;95385.03;;;13.79;39.50
6024;BME280;3040;42.654;23.296;2023-02-15T12:18:18;95405.25;;;14.34;38.59
6024;BME280;3040;42.654;23.296;2023-02-15T12:20:46;95418.00;;;12.91;40.40
6024;BME280;3040;42.654;23.296;2023-02-15T12:23:15;95297.41;;;10.94;43.89
6024;BME280;3040;42.654;23.296;2023-02-15T12:25:43;95399.09;;;10.66;47.19
6024;BME280;3040;42.654;23.296;2023-02-15T12:28:24;95379.19;;;9.04;51.32
6024;BME280;3040;42.654;23.296;2023-02-15T12:30:53;95365.22;;;10.40;51.25
6024;BME280;3040;42.654;23.296;2023-02-15T12:33:26;95396.72;;;11.55;45.85
6024;BME280;3040;42.654;23.296;2023-02-15T12:36:00;95390.78;;;12.69;44.17
6024;BME280;3040;42.654;23.296;2023-02-15T12:38:29;95296.16;;;12.87;41.34
6024;BME280;3040;42.654;23.296;2023-02-15T12:40:58;95378.22;;;13.49;40.95
6024;BME280;3040;42.654;23.296;2023-02-15T12:43:27;95383.84;;;14.01;40.31
6024;BME280;3040;42.654;23.296;2023-02-15T12:46:13;95387.91;;;13.32;40.19
6024;BME280;3040;42.654;23.296;2023-02-15T12:48:41;95374.63;;;11.55;43.83
6024;BME280;3040;42.654;23.296;2023-02-15T12:51:14;95364.34;;;12.00;44.27
6024;BME280;3040;42.654;23.296;2023-02-15T12:53:42;95361.44;;;11.67;45.52
6024;BME280;3040;42.654;23.296;2023-02-15T12:56:10;95221.00;;;11.67;42.94
6024;BME280;3040;42.654;23.296;2023-02-15T12:58:37;95345.41;;;13.60;41.38
6024;BME280;3040;42.654;23.296;2023-02-15T13:01:11;95362.63;;;14.16;39.50
6024;BME280;3040;42.654;23.296;2023-02-15T13:03:54;95362.50;;;14.13;38.74
6024;BME280;3040;42.654;23.296;2023-02-15T13:06:22;95338.94;;;14.06;38.78
6024;BME280;3040;42.654;23.296;2023-02-15T13:08:51;95246.00;;;14.03;37.75
6024;BME280;3040;42.654;23.296;2023-02-15T13:11:22;95329.19;;;14.71;37.01
6024;BME280;3040;42.654;23.296;2023-02-15T13:13:53;95358.38;;;15.25;36.42
6024;BME280;3040;42.654;23.296;2023-02-15T13:16:26;95352.13;;;15.21;36.45
6024;BME280;3040;42.654;23.296;2023-02-15T13:18:54;95354.81;;;15.08;37.20
6024;BME280;3040;42.654;23.296;2023-02-15T13:21:25;95357.47;;;14.23;38.34
6024;BME280;3040;42.654;23.296;2023-02-15T13:24:00;95347.47;;;13.88;39.18
6024;BME280;3040;42.654;23.296;2023-02-15T13:26:30;95344.78;;;14.33;38.74
6024;BME280;3040;42.654;23.296;2023-02-15T13:29:00;95352.22;;;13.37;39.73
6024;BME280;3040;42.654;23.296;2023-02-15T13:31:34;95354.16;;;12.10;42.21
6024;BME280;3040;42.654;23.296;2023-02-15T13:34:07;95351.91;;;11.74;44.17
6024;BME280;3040;42.654;23.296;2023-02-15T13:36:41;95361.13;;;11.86;45.00
6024;BME280;3040;42.654;23.296;2023-02-15T13:39:20;95360.34;;;12.90;42.46
6024;BME280;3040;42.654;23.296;2023-02-15T13:41:58;95353.22;;;12.44;43.52
6024;BME280;3040;42.654;23.296;2023-02-15T13:47:27;95354.03;;;13.24;41.48
6024;BME280;3040;42.654;23.296;2023-02-15T13:50:11;95372.75;;;12.66;42.00
6024;BME280;3040;42.654;23.296;2023-02-15T13:52:47;95354.75;;;12.83;41.91
6024;BME280;3040;42.654;23.296;2023-02-15T13:55:33;95359.22;;;13.21;41.73
6024;BME280;3040;42.654;23.296;2023-02-15T13:58:16;95367.66;;;12.52;42.03
6024;BME280;3040;42.654;23.296;2023-02-15T14:00:52;95366.75;;;12.39;43.21
6024;BME280;3040;42.654;23.296;2023-02-15T14:06:49;95379.25;;;12.09;45.71
6024;BME280;3040;42.654;23.296;2023-02-15T14:09:27;95376.34;;;12.32;44.47
6024;BME280;3040;42.654;23.296;2023-02-15T14:12:16;95390.97;;;12.93;43.04
6024;BME280;3040;42.654;23.296;2023-02-15T14:15:01;95393.06;;;12.49;42.90
6024;BME280;3040;42.654;23.296;2023-02-15T14:17:43;95386.91;;;12.57;43.13
6024;BME280;3040;42.654;23.296;2023-02-15T14:20:20;95387.69;;;12.20;44.62
6024;BME280;3040;42.654;23.296;2023-02-15T14:22:53;95399.88;;;12.38;43.73
6024;BME280;3040;42.654;23.296;2023-02-15T14:25:26;95401.50;;;12.13;43.61
6024;BME280;3040;42.654;23.296;2023-02-15T14:28:01;95359.28;;;11.09;46.95
6024;BME280;3040;42.654;23.296;2023-02-15T14:30:33;95364.13;;;11.24;45.97
6024;BME280;3040;42.654;23.296;2023-02-15T14:33:05;95295.47;;;11.47;44.87
6024;BME280;3040;42.654;23.296;2023-02-15T14:35:34;95399.66;;;12.05;45.14
6024;BME280;3040;42.654;23.296;2023-02-15T14:38:10;95402.59;;;12.21;44.22
6024;BME280;3040;42.654;23.296;2023-02-15T14:40:45;95385.06;;;11.94;44.19
6024;BME280;3040;42.654;23.296;2023-02-15T14:43:37;95389.63;;;12.02;44.09
6024;BME280;3040;42.654;23.296;2023-02-15T14:46:16;95387.50;;;12.34;43.69
6024;BME280;3040;42.654;23.296;2023-02-15T14:48:46;95390.28;;;11.65;45.11
6024;BME280;3040;42.654;23.296;2023-02-15T14:57:24;95386.81;;;11.04;47.96
6024;BME280;3040;42.654;23.296;2023-02-15T14:59:55;95287.84;;;10.93;46.81
6024;BME280;3040;42.654;23.296;2023-02-15T15:02:26;95385.41;;;11.07;46.19
6024;BME280;3040;42.654;23.296;2023-02-15T15:05:01;95387.56;;;10.87;46.80
6024;BME280;3040;42.654;23.296;2023-02-15T15:07:38;95379.25;;;10.24;48.84
6024;BME280;3040;42.654;23.296;2023-02-15T15:10:39;95385.03;;;10.03;50.06
6024;BME280;3040;42.654;23.296;2023-02-15T15:13:51;95390.94;;;9.11;52.28
6024;BME280;3040;42.654;23.296;2023-02-15T15:22:31;95390.53;;;6.55;62.45
6024;BME280;3040;42.654;23.296;2023-02-15T15:25:00;95390.97;;;6.62;62.37
6024;BME280;3040;42.654;23.296;2023-02-15T15:27:38;95395.53;;;6.75;61.65
6024;BME280;3040;42.654;23.296;2023-02-15T15:33:25;95414.06;;;6.33;63.46
6024;BME280;3040;42.654;23.296;2023-02-15T15:36:13;95412.94;;;5.81;65.92
6024;BME280;3040;42.654;23.296;2023-02-15T15:38:56;95384.81;;;5.32;67.19
6024;BME280;3040;42.654;23.296;2023-02-15T15:41:35;95418.53;;;5.41;67.16
6024;BME280;3040;42.654;23.296;2023-02-15T15:44:40;95412.59;;;5.20;68.39
6024;BME280;3040;42.654;23.296;2023-02-15T15:47:32;95404.63;;;4.91;69.53
6024;BME280;3040;42.654;23.296;2023-02-15T15:50:10;95419.91;;;4.94;69.82
6024;BME280;3040;42.654;23.296;2023-02-15T15:52:38;95270.22;;;4.03;69.80
6024;BME280;3040;42.654;23.296;2023-02-15T15:55:16;95410.41;;;4.93;69.82
6024;BME280;3040;42.654;23.296;2023-02-15T15:57:46;95424.88;;;4.96;70.12
6024;BME280;3040;42.654;23.296;2023-02-15T16:00:28;95415.22;;;4.81;70.50
6024;BME280;3040;42.654;23.296;2023-02-15T16:02:57;95416.31;;;4.75;70.86
6024;BME280;3040;42.654;23.296;2023-02-15T16:05:25;95420.78;;;4.74;71.08
6024;BME280;3040;42.654;23.296;2023-02-15T16:07:52;95414.31;;;4.41;72.40
6024;BME280;3040;42.654;23.296;2023-02-15T16:10:21;95415.88;;;4.47;72.34
6024;BME280;3040;42.654;23.296;2023-02-15T16:12:49;95411.16;;;4.44;72.92
6024;BME280;3040;42.654;23.296;2023-02-15T16:15:18;95419.28;;;4.53;72.55
6024;BME280;3040;42.654;23.296;2023-02-15T16:17:48;95414.06;;;4.43;72.77
6024;BME280;3040;42.654;23.296;2023-02-15T16:20:18;95420.16;;;4.38;72.90
6024;BME280;3040;42.654;23.296;2023-02-15T16:23:04;95422.81;;;4.23;73.66
6024;BME280;3040;42.654;23.296;2023-02-15T16:25:40;95403.09;;;4.16;73.46
6024;BME280;3040;42.654;23.296;2023-02-15T16:28:11;95400.22;;;4.07;73.48
6024;BME280;3040;42.654;23.296;2023-02-15T16:30:40;95435.19;;;4.33;73.41
6024;BME280;3040;42.654;23.296;2023-02-15T16:33:09;95431.72;;;4.42;72.76
6024;BME280;3040;42.654;23.296;2023-02-15T16:35:38;95433.56;;;4.42;72.57
6024;BME280;3040;42.654;23.296;2023-02-15T16:38:10;95424.38;;;4.24;73.09
6024;BME280;3040;42.654;23.296;2023-02-15T16:40:43;95429.13;;;4.22;73.39
6024;BME280;3040;42.654;23.296;2023-02-15T16:43:16;95431.75;;;4.22;73.36
6024;BME280;3040;42.654;23.296;2023-02-15T16:45:44;95425.97;;;4.30;73.35
6024;BME280;3040;42.654;23.296;2023-02-15T16:48:16;95315.63;;;3.49;73.44
6024;BME280;3040;42.654;23.296;2023-02-15T16:50:48;95426.31;;;4.03;74.16
6024;BME280;3040;42.654;23.296;2023-02-15T16:53:21;95428.41;;;4.01;74.37
6024;BME280;3040;42.654;23.296;2023-02-15T16:55:51;95434.19;;;4.08;74.28
6024;BME280;3040;42.654;23.296;2023-02-15T16:58:26;95321.94;;;3.33;74.16
6024;BME280;3040;42.654;23.296;2023-02-15T17:00:56;95434.69;;;4.05;74.32
6024;BME280;3040;42.654;23.296;2023-02-15T17:03:24;95428.91;;;4.08;74.19
6024;BME280;3040;42.654;23.296;2023-02-15T17:05:53;95420.94;;;4.39;72.98
6024;BME280;3040;42.654;23.296;2023-02-15T17:08:27;95431.66;;;4.58;72.05
6024;BME280;3040;42.654;23.296;2023-02-15T17:11:10;95420.13;;;4.43;71.56
6024;BME280;3040;42.654;23.296;2023-02-15T17:13:38;95408.16;;;4.66;70.97
6024;BME280;3040;42.654;23.296;2023-02-15T17:16:23;95428.28;;;5.01;69.87
6024;BME280;3040;42.654;23.296;2023-02-15T17:18:53;95438.03;;;5.01;70.59
6024;BME280;3040;42.654;23.296;2023-02-15T17:21:25;95415.66;;;4.98;69.32
6024;BME280;3040;42.654;23.296;2023-02-15T17:23:59;95310.72;;;4.07;70.14
6024;BME280;3040;42.654;23.296;2023-02-15T17:26:29;95425.19;;;4.94;69.67
6024;BME280;3040;42.654;23.296;2023-02-15T17:28:59;95423.41;;;4.79;70.44
6024;BME280;3040;42.654;23.296;2023-02-15T17:31:28;95422.25;;;4.96;69.89
6024;BME280;3040;42.654;23.296;2023-02-15T17:33:57;95425.84;;;5.15;68.71
6024;BME280;3040;42.654;23.296;2023-02-15T17:36:25;95428.91;;;4.88;69.16
6024;BME280;3040;42.654;23.296;2023-02-15T17:39:05;95408.97;;;4.67;70.53
6024;BME280;3040;42.654;23.296;2023-02-15T17:41:34;95421.59;;;4.65;70.04
6024;BME280;3040;42.654;23.296;2023-02-15T17:44:03;95431.91;;;4.61;70.57
6024;BME280;3040;42.654;23.296;2023-02-15T17:46:33;95392.63;;;3.95;72.17
6024;BME280;3040;42.654;23.296;2023-02-15T17:49:01;95415.47;;;4.20;72.15
6024;BME280;3040;42.654;23.296;2023-02-15T17:51:30;95416.09;;;4.61;70.44
6024;BME280;3040;42.654;23.296;2023-02-15T17:53:57;95406.84;;;4.69;69.69
6024;BME280;3040;42.654;23.296;2023-02-15T17:56:43;95437.84;;;4.92;68.96
6024;BME280;3040;42.654;23.296;2023-02-15T17:59:10;95427.75;;;5.04;68.39
6024;BME280;3040;42.654;23.296;2023-02-15T18:01:43;95425.34;;;4.54;72.62
6024;BME280;3040;42.654;23.296;2023-02-15T18:04:28;95414.00;;;4.53;70.80
6024;BME280;3040;42.654;23.296;2023-02-15T18:07:15;95424.34;;;4.44;70.72
6024;BME280;3040;42.654;23.296;2023-02-15T18:10:01;95431.53;;;4.88;70.12
6024;BME280;3040;42.654;23.296;2023-02-15T18:12:46;95428.78;;;5.08;67.79
6024;BME280;3040;42.654;23.296;2023-02-15T18:15:13;95436.56;;;5.28;67.04
6024;BME280;3040;42.654;23.296;2023-02-15T18:17:42;95434.69;;;5.34;66.63
6024;BME280;3040;42.654;23.296;2023-02-15T18:20:17;95431.22;;;5.39;66.40
6024;BME280;3040;42.654;23.296;2023-02-15T18:22:45;95439.13;;;5.39;66.60
6024;BME280;3040;42.654;23.296;2023-02-15T18:25:13;95436.75;;;5.42;66.20
6024;BME280;3040;42.654;23.296;2023-02-15T18:27:40;95432.66;;;5.60;65.51
6024;BME280;3040;42.654;23.296;2023-02-15T18:30:13;95435.00;;;5.61;64.92
6024;BME280;3040;42.654;23.296;2023-02-15T18:32:41;95306.16;;;4.72;65.59
6024;BME280;3040;42.654;23.296;2023-02-15T18:35:14;95427.28;;;5.70;65.17
6024;BME280;3040;42.654;23.296;2023-02-15T18:37:42;95434.56;;;5.10;66.50
6024;BME280;3040;42.654;23.296;2023-02-15T18:40:13;95425.44;;;4.23;70.24
6024;BME280;3040;42.654;23.296;2023-02-15T18:42:41;95430.50;;;3.99;70.91
6024;BME280;3040;42.654;23.296;2023-02-15T18:45:15;95401.88;;;3.57;71.71
6024;BME280;3040;42.654;23.296;2023-02-15T18:47:42;95438.97;;;3.66;72.00
6024;BME280;3040;42.654;23.296;2023-02-15T18:50:10;95298.84;;;2.74;72.97
6024;BME280;3040;42.654;23.296;2023-02-15T18:52:37;95436.59;;;3.59;73.02
6024;BME280;3040;42.654;23.296;2023-02-15T18:55:14;95442.38;;;3.66;72.16
6024;BME280;3040;42.654;23.296;2023-02-15T18:57:42;95425.53;;;3.78;72.12
6024;BME280;3040;42.654;23.296;2023-02-15T19:00:16;95436.53;;;4.10;71.00
6024;BME280;3040;42.654;23.296;2023-02-15T19:02:43;95434.94;;;4.19;70.31
6024;BME280;3040;42.654;23.296;2023-02-15T19:05:10;95445.75;;;4.13;69.41
6024;BME280;3040;42.654;23.296;2023-02-15T19:07:39;95459.69;;;4.18;69.92
6024;BME280;3040;42.654;23.296;2023-02-15T19:10:12;95433.91;;;4.05;70.04
6024;BME280;3040;42.654;23.296;2023-02-15T19:12:41;95292.53;;;2.96;70.81
6024;BME280;3040;42.654;23.296;2023-02-15T19:15:15;95416.59;;;3.63;71.12
6024;BME280;3040;42.654;23.296;2023-02-15T19:17:42;95406.09;;;3.43;71.67
6024;BME280;3040;42.654;23.296;2023-02-15T19:20:15;95436.03;;;3.93;71.33
6024;BME280;3040;42.654;23.296;2023-02-15T19:22:42;95338.25;;;3.20;70.41
6024;BME280;3040;42.654;23.296;2023-02-15T19:25:14;95426.97;;;4.34;69.40
6024;BME280;3040;42.654;23.296;2023-02-15T19:27:42;95433.00;;;4.55;68.35
6024;BME280;3040;42.654;23.296;2023-02-15T19:30:16;95428.50;;;4.56;67.85
6024;BME280;3040;42.654;23.296;2023-02-15T19:32:44;95436.88;;;4.68;66.93
6024;BME280;3040;42.654;23.296;2023-02-15T19:35:13;95302.88;;;3.92;67.09
6024;BME280;3040;42.654;23.296;2023-02-15T19:37:43;95431.19;;;4.40;67.94
6024;BME280;3040;42.654;23.296;2023-02-15T19:40:17;95445.38;;;4.49;67.87
6024;BME280;3040;42.654;23.296;2023-02-15T19:42:45;95447.22;;;4.54;68.04
6024;BME280;3040;42.654;23.296;2023-02-15T19:45:14;95457.91;;;4.78;66.84
6024;BME280;3040;42.654;23.296;2023-02-15T19:47:41;95437.38;;;4.75;66.61
6024;BME280;3040;42.654;23.296;2023-02-15T19:50:13;95442.22;;;5.12;65.06
6024;BME280;3040;42.654;23.296;2023-02-15T19:52:40;95451.81;;;5.31;64.33
6024;BME280;3040;42.654;23.296;2023-02-15T19:55:15;95450.69;;;5.48;63.78
6024;BME280;3040;42.654;23.296;2023-02-15T19:57:42;95454.78;;;5.64;62.68
6024;BME280;3040;42.654;23.296;2023-02-15T20:00:16;95452.06;;;5.74;62.34
6024;BME280;3040;42.654;23.296;2023-02-15T20:02:45;95446.28;;;5.72;62.17
6024;BME280;3040;42.654;23.296;2023-02-15T20:05:13;95453.72;;;5.65;62.38
6024;BME280;3040;42.654;23.296;2023-02-15T20:07:41;95456.28;;;5.75;61.72
6024;BME280;3040;42.654;23.296;2023-02-15T20:10:17;95445.72;;;5.75;61.95
6024;BME280;3040;42.654;23.296;2023-02-15T20:12:45;95431.53;;;5.66;62.24
6024;BME280;3040;42.654;23.296;2023-02-15T20:15:22;95443.47;;;5.19;63.79
6024;BME280;3040;42.654;23.296;2023-02-15T20:17:49;95438.16;;;5.24;64.01
6024;BME280;3040;42.654;23.296;2023-02-15T20:20:20;95434.91;;;5.38;63.29
6024;BME280;3040;42.654;23.296;2023-02-15T20:22:49;95443.03;;;5.46;63.11
6024;BME280;3040;42.654;23.296;2023-02-15T20:25:20;95437.66;;;5.22;63.21
6024;BME280;3040;42.654;23.296;2023-02-15T20:27:47;95438.97;;;5.20;62.94
6024;BME280;3040;42.654;23.296;2023-02-15T20:30:16;95442.16;;;5.22;63.38
6024;BME280;3040;42.654;23.296;2023-02-15T20:32:45;95438.97;;;5.20;63.36
6024;BME280;3040;42.654;23.296;2023-02-15T20:35:13;95443.00;;;5.12;64.04
6024;BME280;3040;42.654;23.296;2023-02-15T20:37:40;95441.88;;;5.23;63.57
6024;BME280;3040;42.654;23.296;2023-02-15T20:40:15;95431.28;;;5.28;63.31
6024;BME280;3040;42.654;23.296;2023-02-15T20:42:43;95395.53;;;5.12;62.99
6024;BME280;3040;42.654;23.296;2023-02-15T20:45:15;95429.72;;;5.27;62.14
6024;BME280;3040;42.654;23.296;2023-02-15T20:47:44;95445.22;;;5.34;62.51
6024;BME280;3040;42.654;23.296;2023-02-15T20:50:15;95443.88;;;5.37;62.84
6024;BME280;3040;42.654;23.296;2023-02-15T20:52:44;95441.22;;;5.42;62.83
6024;BME280;3040;42.654;23.296;2023-02-15T20:55:15;95436.50;;;5.39;62.41
6024;BME280;3040;42.654;23.296;2023-02-15T20:57:43;95441.22;;;5.42;62.51
6024;BME280;3040;42.654;23.296;2023-02-15T21:00:15;95439.25;;;5.23;62.33
6024;BME280;3040;42.654;23.296;2023-02-15T21:02:45;95356.84;;;4.54;62.98
6024;BME280;3040;42.654;23.296;2023-02-15T21:05:17;95433.25;;;5.08;63.36
6024;BME280;3040;42.654;23.296;2023-02-15T21:07:44;95440.56;;;4.67;64.72
6024;BME280;3040;42.654;23.296;2023-02-15T21:10:16;95422.41;;;4.65;64.52
6024;BME280;3040;42.654;23.296;2023-02-15T21:12:44;95436.34;;;4.71;63.72
6024;BME280;3040;42.654;23.296;2023-02-15T21:15:30;95405.88;;;4.49;64.54
6024;BME280;3040;42.654;23.296;2023-02-15T21:18:00;95426.69;;;4.51;65.44
6024;BME280;3040;42.654;23.296;2023-02-15T21:20:29;95435.44;;;4.26;66.67
6024;BME280;3040;42.654;23.296;2023-02-15T21:22:57;95426.47;;;4.32;66.97
6024;BME280;3040;42.654;23.296;2023-02-15T21:25:28;95436.47;;;4.45;66.41
6024;BME280;3040;42.654;23.296;2023-02-15T21:27:55;95436.38;;;4.61;65.08
6024;BME280;3040;42.654;23.296;2023-02-15T21:30:22;95435.84;;;4.69;64.58
6024;BME280;3040;42.654;23.296;2023-02-15T21:32:49;95431.59;;;4.73;64.55
6024;BME280;3040;42.654;23.296;2023-02-15T21:35:18;95443.16;;;4.82;64.34
6024;BME280;3040;42.654;23.296;2023-02-15T21:37:48;95439.03;;;4.61;64.92
6024;BME280;3040;42.654;23.296;2023-02-15T21:40:17;95435.97;;;4.33;65.61
6024;BME280;3040;42.654;23.296;2023-02-15T21:42:44;95434.91;;;4.39;65.42
6024;BME280;3040;42.654;23.296;2023-02-15T21:45:29;95432.81;;;4.31;66.82
6024;BME280;3040;42.654;23.296;2023-02-15T21:48:13;95439.06;;;4.50;66.17
6024;BME280;3040;42.654;23.296;2023-02-15T21:50:42;95442.22;;;4.58;65.83
6024;BME280;3040;42.654;23.296;2023-02-15T21:53:28;95443.81;;;4.48;66.07
6024;BME280;3040;42.654;23.296;2023-02-15T21:55:58;95449.59;;;4.50;66.80
6024;BME280;3040;42.654;23.296;2023-02-15T21:58:27;95428.00;;;4.48;66.53
6024;BME280;3040;42.654;23.296;2023-02-15T22:00:55;95439.56;;;4.58;66.51
6024;BME280;3040;42.654;23.296;2023-02-15T22:03:23;95443.47;;;4.65;66.18
6024;BME280;3040;42.654;23.296;2023-02-15T22:05:52;95451.63;;;4.74;65.88
6024;BME280;3040;42.654;23.296;2023-02-15T22:08:19;95456.34;;;4.77;65.51
6024;BME280;3040;42.654;23.296;2023-02-15T22:10:46;95349.66;;;4.15;64.71
6024;BME280;3040;42.654;23.296;2023-02-15T22:13:15;95389.66;;;4.17;66.48
6024;BME280;3040;42.654;23.296;2023-02-15T22:15:43;95456.25;;;4.33;67.32
6024;BME280;3040;42.654;23.296;2023-02-15T22:18:19;95364.47;;;3.81;68.10
6024;BME280;3040;42.654;23.296;2023-02-15T22:20:47;95448.56;;;4.41;66.90
6024;BME280;3040;42.654;23.296;2023-02-15T22:23:15;95451.16;;;4.57;67.16
6024;BME280;3040;42.654;23.296;2023-02-15T22:25:44;95456.13;;;4.58;66.34
6024;BME280;3040;42.654;23.296;2023-02-15T22:28:13;95457.00;;;4.43;67.12
6024;BME280;3040;42.654;23.296;2023-02-15T22:30:42;95449.13;;;4.33;67.13
6024;BME280;3040;42.654;23.296;2023-02-15T22:33:20;95452.59;;;4.19;67.10
6024;BME280;3040;42.654;23.296;2023-02-15T22:35:48;95446.00;;;4.16;66.91
6024;BME280;3040;42.654;23.296;2023-02-15T22:38:17;95436.06;;;3.67;68.75
6024;BME280;3040;42.654;23.296;2023-02-15T22:40:44;95445.81;;;3.72;69.18
6024;BME280;3040;42.654;23.296;2023-02-15T22:43:21;95452.88;;;3.82;69.29
6024;BME280;3040;42.654;23.296;2023-02-15T22:45:49;95446.56;;;3.93;68.70
6024;BME280;3040;42.654;23.296;2023-02-15T22:48:20;95426.06;;;3.90;68.00
6024;BME280;3040;42.654;23.296;2023-02-15T22:50:48;95460.75;;;4.17;67.13
6024;BME280;3040;42.654;23.296;2023-02-15T22:53:15;95451.25;;;4.26;66.46
6024;BME280;3040;42.654;23.296;2023-02-15T22:55:43;95406.78;;;4.04;66.35
6024;BME280;3040;42.654;23.296;2023-02-15T22:58:16;95450.69;;;4.39;66.47
6024;BME280;3040;42.654;23.296;2023-02-15T23:00:44;95428.59;;;4.25;66.30
6024;BME280;3040;42.654;23.296;2023-02-15T23:03:15;95424.75;;;3.62;68.55
6024;BME280;3040;42.654;23.296;2023-02-15T23:05:43;95452.38;;;3.90;68.56
6024;BME280;3040;42.654;23.296;2023-02-15T23:08:11;95456.56;;;3.76;67.87
6024;BME280;3040;42.654;23.296;2023-02-15T23:10:39;95458.94;;;3.82;68.46
6024;BME280;3040;42.654;23.296;2023-02-15T23:13:17;95431.59;;;3.63;69.73
6024;BME280;3040;42.654;23.296;2023-02-15T23:15:49;95453.44;;;3.84;69.32
6024;BME280;3040;42.654;23.296;2023-02-15T23:18:18;95446.56;;;3.62;69.96
6024;BME280;3040;42.654;23.296;2023-02-15T23:20:47;95470.50;;;3.51;70.13
6024;BME280;3040;42.654;23.296;2023-02-15T23:23:15;95431.59;;;3.53;69.61
6024;BME280;3040;42.654;23.296;2023-02-15T23:25:42;95453.97;;;3.60;69.80
6024;BME280;3040;42.654;23.296;2023-02-15T23:28:22;95447.13;;;3.59;70.32
6024;BME280;3040;42.654;23.296;2023-02-15T23:30:49;95315.09;;;2.71;70.08
6024;BME280;3040;42.654;23.296;2023-02-15T23:33:19;95442.91;;;3.43;69.73
6024;BME280;3040;42.654;23.296;2023-02-15T23:35:47;95441.28;;;3.12;70.94
6024;BME280;3040;42.654;23.296;2023-02-15T23:38:20;95429.13;;;2.75;72.22
6024;BME280;3040;42.654;23.296;2023-02-15T23:40:53;95440.69;;;2.84;72.06
6024;BME280;3040;42.654;23.296;2023-02-15T23:43:41;95439.09;;;2.78;72.14
6024;BME280;3040;42.654;23.296;2023-02-15T23:46:25;95434.94;;;2.88;72.98
6024;BME280;3040;42.654;23.296;2023-02-15T23:48:53;95432.88;;;3.05;72.46
6024;BME280;3040;42.654;23.296;2023-02-15T23:51:21;95433.16;;;3.23;71.76
6024;BME280;3040;42.654;23.296;2023-02-15T23:53:49;95428.94;;;3.38;70.69
6024;BME280;3040;42.654;23.296;2023-02-15T23:56:15;95434.50;;;3.46;69.79
6024;BME280;3040;42.654;23.296;2023-02-15T23:58:47;95441.06;;;3.49;69.47
